| time (UTC) | temp F | wind direction | speed MPH | gust MPH | rain 1hr in | rain 24hr in | rain mn in | humidity % | barometer mb |
| 20260505170003 | 58 | 0 | 0.0 | 0.0 | 0.00 | 0.25 | 0.25 | 78 | 1012.2 |
| 20260505165503 | 58 | 0 | 0.0 | 0.0 | 0.00 | 0.25 | 0.25 | 79 | 1012.2 |
| 20260505165003 | 58 | 0 | 0.0 | 0.0 | 0.00 | 0.25 | 0.25 | 79 | 1012.4 |
| 20260505164504 | 58 | 0 | 0.0 | 0.0 | 0.00 | 0.25 | 0.25 | 79 | 1012.3 |
| 20260505164003 | 58 | 0 | 0.0 | 0.0 | 0.00 | 0.25 | 0.25 | 80 | 1012.3 |
| 20260505163503 | 58 | 0 | 0.0 | 0.0 | 0.00 | 0.25 | 0.25 | 80 | 1012.3 |
| 20260505163003 | 58 | 0 | 0.0 | 0.0 | 0.00 | 0.25 | 0.25 | 80 | 1012.3 |
| 20260505162503 | 58 | 0 | 0.0 | 0.0 | 0.00 | 0.25 | 0.25 | 81 | 1012.3 |
| 20260505162003 | 58 | 0 | 0.0 | 0.0 | 0.00 | 0.25 | 0.25 | 81 | 1012.3 |
| 20260505161504 | 58 | 0 | 0.0 | 0.0 | 0.00 | 0.25 | 0.25 | 81 | 1012.2 |
| 20260505161003 | 58 | 0 | 0.0 | 0.0 | 0.00 | 0.25 | 0.25 | 81 | 1012.2 |
| 20260505160503 | 58 | 0 | 0.0 | 0.0 | 0.00 | 0.25 | 0.25 | 81 | 1012.1 |
| 20260505153004 | 58 | 0 | 0.0 | 0.0 | 0.00 | 0.25 | 0.25 | 81 | 1012.4 |
| 20260505152504 | 59 | 0 | 0.0 | 0.0 | 0.00 | 0.25 | 0.25 | 81 | 1012.4 |
| 20260505152003 | 59 | 0 | 0.0 | 0.0 | 0.00 | 0.25 | 0.25 | 81 | 1012.3 |
| 20260505151503 | 59 | 0 | 0.0 | 0.0 | 0.00 | 0.25 | 0.25 | 81 | 1012.3 |
| 20260505151003 | 59 | 0 | 0.0 | 0.0 | 0.00 | 0.25 | 0.25 | 81 | 1012.3 |
| 20260505150504 | 58 | 0 | 0.0 | 0.0 | 0.00 | 0.25 | 0.25 | 81 | 1012.3 |
| 20260505125003 | 55 | 0 | 0.0 | 0.0 | 0.00 | 0.25 | 0.25 | 64 | 1013.2 |
| 20260505124504 | 55 | 0 | 0.0 | 0.0 | 0.00 | 0.25 | 0.25 | 65 | 1013.2 |
| 20260505124003 | 55 | 0 | 0.0 | 0.0 | 0.00 | 0.25 | 0.25 | 64 | 1013.2 |
| 20260505123503 | 55 | 0 | 0.0 | 0.0 | 0.00 | 0.25 | 0.25 | 63 | 1013.2 |
| 20260505123004 | 55 | 0 | 0.0 | 0.0 | 0.00 | 0.25 | 0.25 | 64 | 1013.2 |
| 20260505122503 | 55 | 0 | 0.0 | 0.0 | 0.00 | 0.25 | 0.25 | 65 | 1013.3 |
| 20260505122004 | 55 | 134 | 0.0 | 4.0 | 0.00 | 0.25 | 0.25 | 67 | 1013.3 |
| 20260505121503 | 55 | 134 | 0.0 | 4.0 | 0.00 | 0.25 | 0.25 | 67 | 1013.4 |
| 20260505121003 | 55 | 0 | 0.0 | 0.0 | 0.00 | 0.25 | 0.25 | 65 | 1013.4 |
| 20260505120712 | 55 | 0 | 0.0 | 0.0 | 0.00 | 0.25 | 0.25 | 66 | 1013.4 |
| 20260505120004 | 55 | 0 | 0.0 | 0.0 | 0.00 | 0.25 | 0.25 | 67 | 1013.4 |
| 20260505115713 | 55 | 0 | 0.0 | 0.0 | 0.00 | 0.25 | 0.25 | 65 | 1013.4 |
| 20260505115003 | 55 | 0 | 0.0 | 0.0 | 0.00 | 0.25 | 0.25 | 64 | 1013.4 |
| 20260505114503 | 55 | 301 | 0.0 | 2.0 | 0.00 | 0.25 | 0.25 | 65 | 1013.4 |
| 20260505114004 | 55 | 301 | 0.0 | 2.0 | 0.00 | 0.25 | 0.25 | 63 | 1013.3 |
| 20260505113503 | 54 | 0 | 0.0 | 0.0 | 0.00 | 0.25 | 0.25 | 64 | 1013.4 |
| 20260505113004 | 54 | 0 | 0.0 | 0.0 | 0.00 | 0.25 | 0.25 | 65 | 1013.4 |
| 20260505112503 | 54 | 0 | 0.0 | 0.0 | 0.00 | 0.25 | 0.25 | 65 | 1013.5 |
| 20260505112003 | 54 | 0 | 0.0 | 0.0 | 0.00 | 0.25 | 0.25 | 66 | 1013.5 |
| 20260505111503 | 54 | 0 | 0.0 | 0.0 | 0.00 | 0.25 | 0.25 | 65 | 1013.5 |
| 20260505111004 | 54 | 0 | 0.0 | 0.0 | 0.00 | 0.25 | 0.25 | 65 | 1013.5 |
| 20260505110713 | 54 | 0 | 0.0 | 0.0 | 0.00 | 0.25 | 0.25 | 64 | 1013.5 |
| 20260505102003 | 54 | 255 | 0.0 | 3.0 | 0.01 | 0.25 | 0.25 | 59 | 1013.8 |
| 20260505101503 | 54 | 260 | 0.0 | 3.0 | 0.01 | 0.25 | 0.25 | 58 | 1013.8 |
| 20260505101004 | 53 | 270 | 0.0 | 2.0 | 0.01 | 0.25 | 0.25 | 57 | 1013.7 |
| 20260505100503 | 53 | 269 | 0.0 | 1.0 | 0.01 | 0.25 | 0.25 | 57 | 1013.7 |
| 20260505100217 | 53 | 245 | 0.0 | 1.0 | 0.01 | 0.25 | 0.25 | 57 | 1013.7 |
| 20260505095715 | 53 | 242 | 0.0 | 1.0 | 0.01 | 0.25 | 0.25 | 58 | 1013.7 |
| 20260505095003 | 53 | 253 | 0.0 | 2.0 | 0.01 | 0.25 | 0.25 | 59 | 1013.8 |
| 20260505094503 | 53 | 0 | 0.0 | 0.0 | 0.01 | 0.25 | 0.25 | 57 | 1013.8 |
| 20260505094003 | 53 | 249 | 0.0 | 2.0 | 0.01 | 0.25 | 0.25 | 57 | 1013.9 |
| 20260505093504 | 53 | 251 | 0.0 | 2.0 | 0.01 | 0.25 | 0.25 | 57 | 1013.8 |
| 20260505093004 | 53 | 273 | 0.0 | 3.0 | 0.01 | 0.25 | 0.25 | 58 | 1013.8 |
| 20260505092503 | 53 | 265 | 0.0 | 4.0 | 0.00 | 0.24 | 0.24 | 58 | 1013.8 |
| 20260505092003 | 53 | 262 | 0.0 | 4.0 | 0.00 | 0.24 | 0.24 | 54 | 1013.7 |
| 20260505091504 | 53 | 268 | 0.0 | 3.0 | 0.00 | 0.24 | 0.24 | 53 | 1013.7 |
| 20260505091003 | 53 | 0 | 0.0 | 0.0 | 0.00 | 0.24 | 0.24 | 53 | 1013.7 |
| 20260505090503 | 53 | 0 | 0.0 | 0.0 | 0.00 | 0.24 | 0.24 | 53 | 1013.7 |
| 20260505090004 | 53 | 190 | 0.0 | 3.0 | 0.00 | 0.24 | 0.24 | 54 | 1013.7 |
| 20260505085503 | 53 | 190 | 0.0 | 3.0 | 0.00 | 0.24 | 0.24 | 55 | 1013.7 |
| 20260505085003 | 52 | 190 | 0.0 | 2.0 | 0.00 | 0.24 | 0.24 | 53 | 1013.6 |
| 20260505084503 | 52 | 0 | 0.0 | 0.0 | 0.00 | 0.24 | 0.24 | 53 | 1013.5 |
| 20260505084003 | 52 | 157 | 0.0 | 1.0 | 0.00 | 0.24 | 0.24 | 55 | 1013.4 |
| 20260505083503 | 52 | 157 | 0.0 | 1.0 | 0.00 | 0.24 | 0.24 | 55 | 1013.4 |
| 20260505083004 | 52 | 157 | 0.0 | 1.0 | 0.01 | 0.24 | 0.24 | 56 | 1013.4 |
| 20260505082503 | 52 | 133 | 0.0 | 1.0 | 0.01 | 0.24 | 0.24 | 55 | 1013.4 |
| 20260505082004 | 52 | 144 | 0.0 | 3.0 | 0.01 | 0.24 | 0.24 | 55 | 1013.4 |
| 20260505081504 | 52 | 146 | 0.0 | 3.0 | 0.01 | 0.24 | 0.24 | 56 | 1013.3 |
| 20260505081004 | 52 | 145 | 0.0 | 2.0 | 0.01 | 0.24 | 0.24 | 56 | 1013.3 |
| 20260505080503 | 52 | 0 | 0.0 | 0.0 | 0.01 | 0.24 | 0.24 | 55 | 1013.2 |
| 20260505080213 | 52 | 0 | 0.0 | 0.0 | 0.01 | 0.24 | 0.24 | 56 | 1013.2 |
| 20260505075503 | 52 | 0 | 0.0 | 0.0 | 0.01 | 0.24 | 0.24 | 57 | 1013.2 |
| 20260505075003 | 52 | 0 | 0.0 | 0.0 | 0.01 | 0.24 | 0.24 | 57 | 1013.2 |
| 20260505074503 | 52 | 0 | 0.0 | 0.0 | 0.01 | 0.24 | 0.24 | 57 | 1013.2 |
| 20260505074003 | 52 | 0 | 0.0 | 0.0 | 0.01 | 0.24 | 0.24 | 57 | 1013.2 |
| 20260505073503 | 52 | 0 | 0.0 | 0.0 | 0.01 | 0.24 | 0.24 | 57 | 1013.1 |
| 20260505073004 | 52 | 0 | 0.0 | 0.0 | 0.00 | 0.24 | 0.24 | 59 | 1013.1 |
| 20260505072714 | 52 | 0 | 0.0 | 0.0 | 0.01 | 0.24 | 0.24 | 60 | 1013.1 |
| 20260505072003 | 52 | 188 | 0.0 | 4.0 | 0.01 | 0.24 | 0.24 | 60 | 1013.2 |
| 20260505071504 | 52 | 186 | 0.0 | 4.0 | 0.01 | 0.24 | 0.24 | 61 | 1013.3 |
| 20260505071003 | 52 | 183 | 0.0 | 3.0 | 0.01 | 0.24 | 0.24 | 61 | 1013.2 |
| 20260505070716 | 52 | 173 | 0.0 | 2.0 | 0.01 | 0.24 | 0.24 | 61 | 1013.2 |
| 20260505070003 | 53 | 177 | 1.0 | 4.0 | 0.01 | 0.24 | 0.24 | 61 | 1013.1 |
| 20260505065503 | 53 | 177 | 1.0 | 4.0 | 0.02 | 0.24 | 0.24 | 62 | 1013.1 |
| 20260505065003 | 53 | 170 | 0.0 | 3.0 | 0.02 | 0.24 | 0.24 | 59 | 1013.1 |
| 20260505064504 | 53 | 150 | 0.0 | 2.0 | 0.02 | 0.24 | 0.24 | 60 | 1013.1 |
| 20260505064003 | 53 | 0 | 0.0 | 0.0 | 0.03 | 0.24 | 0.24 | 60 | 1013.0 |
| 20260505063504 | 52 | 0 | 0.0 | 0.0 | 0.04 | 0.24 | 0.24 | 59 | 1012.9 |
| 20260505063003 | 52 | 0 | 0.0 | 0.0 | 0.04 | 0.24 | 0.24 | 59 | 1012.9 |
| 20260505062504 | 52 | 336 | 0.0 | 1.0 | 0.04 | 0.23 | 0.23 | 60 | 1012.8 |
| 20260505062218 | 52 | 328 | 0.0 | 3.0 | 0.05 | 0.23 | 0.23 | 60 | 1012.8 |
| 20260505061503 | 52 | 326 | 0.0 | 3.0 | 0.06 | 0.23 | 0.23 | 62 | 1012.8 |
| 20260505061003 | 52 | 345 | 0.0 | 1.0 | 0.07 | 0.23 | 0.23 | 63 | 1012.8 |
| 20260505060503 | 52 | 1 | 0.0 | 1.0 | 0.08 | 0.23 | 0.23 | 64 | 1012.8 |
| 20260505060004 | 52 | 335 | 0.0 | 2.0 | 0.09 | 0.23 | 0.23 | 65 | 1012.9 |
| 20260505055503 | 52 | 322 | 0.0 | 3.0 | 0.10 | 0.22 | 0.22 | 66 | 1013.0 |
| 20260505055003 | 52 | 319 | 0.0 | 3.0 | 0.10 | 0.21 | 0.21 | 66 | 1013.1 |
| 20260505054503 | 52 | 287 | 0.0 | 1.0 | 0.12 | 0.21 | 0.21 | 66 | 1013.1 |
| 20260505054004 | 52 | 283 | 0.0 | 1.0 | 0.12 | 0.20 | 0.20 | 67 | 1013.2 |
| 20260505053503 | 52 | 282 | 0.0 | 1.0 | 0.12 | 0.20 | 0.20 | 66 | 1013.2 |
| 20260505053003 | 52 | 0 | 0.0 | 0.0 | 0.13 | 0.20 | 0.20 | 67 | 1013.3 |
| 20260505052715 | 52 | 0 | 0.0 | 0.0 | 0.13 | 0.19 | 0.19 | 67 | 1013.3 |
| 20260505052003 | 52 | 0 | 0.0 | 0.0 | 0.13 | 0.18 | 0.18 | 69 | 1013.3 |
| 20260505051503 | 52 | 0 | 0.0 | 0.0 | 0.13 | 0.17 | 0.17 | 69 | 1013.3 |
| 20260505051214 | 52 | 0 | 0.0 | 0.0 | 0.12 | 0.16 | 0.16 | 69 | 1013.3 |
| 20260505050503 | 52 | 269 | 0.0 | 2.0 | 0.12 | 0.15 | 0.15 | 70 | 1013.3 |
| 20260505041717 | 53 | 188 | 0.0 | 1.0 | 0.02 | 0.04 | 0.04 | 75 | 1013.5 |
| 20260505041003 | 53 | 192 | 0.0 | 3.0 | 0.02 | 0.04 | 0.04 | 76 | 1013.5 |
| 20260505040503 | 53 | 195 | 0.0 | 4.0 | 0.01 | 0.03 | 0.03 | 76 | 1013.5 |
| 20260505040004 | 53 | 196 | 0.0 | 4.0 | 0.01 | 0.03 | 0.03 | 76 | 1013.4 |
| 20260505035503 | 53 | 217 | 0.0 | 1.0 | 0.01 | 0.03 | 0.03 | 76 | 1013.4 |
| 20260505035004 | 53 | 241 | 0.0 | 1.0 | 0.00 | 0.02 | 0.02 | 76 | 1013.4 |
| 20260505034504 | 53 | 254 | 0.0 | 1.0 | 0.00 | 0.02 | 0.02 | 76 | 1013.4 |
| 20260505034004 | 53 | 0 | 0.0 | 0.0 | 0.00 | 0.02 | 0.02 | 76 | 1013.4 |
| 20260505033504 | 53 | 258 | 0.0 | 1.0 | 0.00 | 0.02 | 0.02 | 77 | 1013.3 |
| 20260505033003 | 53 | 258 | 0.0 | 1.0 | 0.00 | 0.02 | 0.02 | 77 | 1013.2 |
| 20260505032503 | 53 | 0 | 0.0 | 0.0 | 0.00 | 0.02 | 0.02 | 77 | 1013.2 |
| 20260505032004 | 53 | 0 | 0.0 | 0.0 | 0.00 | 0.02 | 0.02 | 77 | 1013.2 |
| 20260505031503 | 53 | 0 | 0.0 | 0.0 | 0.00 | 0.02 | 0.02 | 77 | 1013.1 |
| 20260505031003 | 53 | 0 | 0.0 | 0.0 | 0.00 | 0.02 | 0.02 | 77 | 1013.1 |
| 20260505030713 | 53 | 0 | 0.0 | 0.0 | 0.00 | 0.02 | 0.02 | 77 | 1013.1 |
| 20260505030004 | 53 | 0 | 0.0 | 0.0 | 0.00 | 0.02 | 0.02 | 78 | 1013.0 |
| 20260505025503 | 53 | 0 | 0.0 | 0.0 | 0.00 | 0.02 | 0.02 | 79 | 1013.0 |
| 20260505025004 | 53 | 0 | 0.0 | 0.0 | 0.00 | 0.02 | 0.02 | 80 | 1013.0 |
| 20260505024503 | 53 | 0 | 0.0 | 0.0 | 0.00 | 0.02 | 0.02 | 80 | 1013.1 |
| 20260505024003 | 54 | 0 | 0.0 | 0.0 | 0.00 | 0.02 | 0.02 | 80 | 1013.1 |
| 20260505023716 | 54 | 0 | 0.0 | 0.0 | 0.00 | 0.02 | 0.02 | 80 | 1013.1 |
| 20260505023003 | 54 | 0 | 0.0 | 0.0 | 0.00 | 0.02 | 0.02 | 81 | 1013.1 |
| 20260505022504 | 54 | 0 | 0.0 | 0.0 | 0.00 | 0.02 | 0.02 | 81 | 1013.2 |
| 20260505022003 | 54 | 0 | 0.0 | 0.0 | 0.00 | 0.02 | 0.02 | 81 | 1013.2 |
| 20260505021713 | 54 | 0 | 0.0 | 0.0 | 0.00 | 0.02 | 0.02 | 81 | 1013.3 |
| 20260505021003 | 54 | 326 | 0.0 | 1.0 | 0.00 | 0.02 | 0.02 | 81 | 1013.4 |
| 20260505020504 | 54 | 326 | 0.0 | 1.0 | 0.01 | 0.02 | 0.02 | 81 | 1013.4 |
| 20260505020217 | 54 | 0 | 0.0 | 0.0 | 0.01 | 0.02 | 0.02 | 81 | 1013.4 |
| 20260505015715 | 54 | 0 | 0.0 | 0.0 | 0.01 | 0.02 | 0.02 | 81 | 1013.5 |
| 20260505015003 | 54 | 346 | 0.0 | 2.0 | 0.02 | 0.02 | 0.02 | 81 | 1013.4 |
| 20260505014503 | 54 | 346 | 0.0 | 2.0 | 0.02 | 0.02 | 0.02 | 81 | 1013.4 |
| 20260505014003 | 54 | 342 | 0.0 | 1.0 | 0.02 | 0.02 | 0.02 | 81 | 1013.5 |
| 20260505013503 | 54 | 342 | 0.0 | 1.0 | 0.02 | 0.02 | 0.02 | 81 | 1013.6 |
| 20260505013003 | 54 | 0 | 0.0 | 0.0 | 0.02 | 0.02 | 0.02 | 81 | 1013.7 |
| 20260505012503 | 55 | 325 | 0.0 | 4.0 | 0.02 | 0.02 | 0.02 | 81 | 1013.8 |
| 20260505012003 | 54 | 319 | 1.0 | 6.0 | 0.02 | 0.02 | 0.02 | 81 | 1013.8 |
| 20260505011504 | 54 | 316 | 1.0 | 6.0 | 0.02 | 0.02 | 0.02 | 81 | 1013.8 |
| 20260505011003 | 54 | 312 | 1.0 | 5.0 | 0.02 | 0.02 | 0.02 | 81 | 1014.1 |
| 20260505010503 | 55 | 307 | 0.0 | 3.0 | 0.02 | 0.02 | 0.02 | 81 | 1014.2 |
| 20260505010004 | 55 | 321 | 0.0 | 2.0 | 0.02 | 0.02 | 0.02 | 81 | 1014.4 |
| 20260505005503 | 55 | 0 | 0.0 | 0.0 | 0.02 | 0.02 | 0.02 | 81 | 1014.5 |
| 20260505005004 | 55 | 0 | 0.0 | 0.0 | 0.01 | 0.01 | 0.01 | 81 | 1014.7 |
| 20260505004503 | 55 | 0 | 0.0 | 0.0 | 0.01 | 0.01 | 0.01 | 81 | 1014.9 |
| 20260505004003 | 55 | 0 | 0.0 | 0.0 | 0.00 | 0.00 | 0.00 | 81 | 1015.0 |
| 20260505003503 | 55 | 0 | 0.0 | 0.0 | 0.00 | 0.00 | 0.00 | 81 | 1015.1 |
| 20260505003003 | 55 | 0 | 0.0 | 0.0 | 0.00 | 0.00 | 0.00 | 81 | 1015.1 |
| 20260505002503 | 55 | 0 | 0.0 | 0.0 | 0.00 | 0.00 | 0.00 | 80 | 1015.2 |
| 20260505002003 | 55 | 0 | 0.0 | 0.0 | 0.00 | 0.00 | 0.00 | 80 | 1015.2 |
| 20260505001503 | 55 | 0 | 0.0 | 0.0 | 0.00 | 0.00 | 0.00 | 80 | 1015.2 |
| 20260505001003 | 55 | 0 | 0.0 | 0.0 | 0.00 | 0.00 | 0.00 | 80 | 1015.4 |
| 20260505000504 | 55 | 0 | 0.0 | 0.0 | 0.00 | 0.00 | 0.00 | 80 | 1015.4 |
| 20260505000004 | 55 | 0 | 0.0 | 0.0 | 0.00 | 0.00 | 0.00 | 80 | 1015.5 |
| 20260504235504 | 55 | 0 | 0.0 | 0.0 | 0.00 | 0.00 | 0.00 | 79 | 1015.5 |
| 20260504235003 | 55 | 0 | 0.0 | 0.0 | 0.00 | 0.00 | 0.00 | 79 | 1015.5 |
| 20260504234503 | 55 | 0 | 0.0 | 0.0 | 0.00 | 0.00 | 0.00 | 79 | 1015.5 |
| 20260504234003 | 55 | 0 | 0.0 | 0.0 | 0.00 | 0.00 | 0.00 | 78 | 1015.4 |
| 20260504233503 | 55 | 0 | 0.0 | 0.0 | 0.00 | 0.00 | 0.00 | 78 | 1015.5 |
| 20260504233003 | 55 | 0 | 0.0 | 0.0 | 0.00 | 0.00 | 0.00 | 77 | 1015.7 |
| 20260504232503 | 55 | 188 | 0.0 | 2.0 | 0.00 | 0.00 | 0.00 | 77 | 1015.8 |
| 20260504232003 | 55 | 188 | 0.0 | 2.0 | 0.00 | 0.00 | 0.00 | 77 | 1015.9 |
| 20260504231504 | 56 | 177 | 1.0 | 2.0 | 0.00 | 0.00 | 0.00 | 77 | 1016.1 |
| 20260504230503 | 56 | 176 | 0.0 | 2.0 | 0.00 | 0.00 | 0.00 | 76 | 1016.1 |
| 20260504230004 | 56 | 179 | 0.0 | 2.0 | 0.00 | 0.00 | 0.00 | 75 | 1016.2 |
| 20260504225503 | 56 | 0 | 0.0 | 0.0 | 0.00 | 0.00 | 0.00 | 74 | 1016.2 |
| 20260504225003 | 57 | 0 | 0.0 | 0.0 | 0.00 | 0.00 | 0.00 | 74 | 1016.2 |
| 20260504224505 | 57 | 0 | 0.0 | 0.0 | 0.00 | 0.00 | 0.00 | 73 | 1016.2 |
| 20260504224217 | 57 | 0 | 0.0 | 0.0 | 0.00 | 0.00 | 0.00 | 73 | 1016.3 |
| 20260504223715 | 57 | 191 | 0.0 | 2.0 | 0.00 | 0.00 | 0.00 | 72 | 1016.3 |
| 20260504223003 | 58 | 0 | 0.0 | 0.0 | 0.00 | 0.00 | 0.00 | 69 | 1016.3 |
| 20260504222716 | 58 | 263 | 0.0 | 1.0 | 0.00 | 0.00 | 0.00 | 68 | 1016.3 |
| 20260504222003 | 58 | 263 | 0.0 | 1.0 | 0.00 | 0.00 | 0.00 | 67 | 1016.3 |
| 20260504221503 | 58 | 0 | 0.0 | 0.0 | 0.00 | 0.00 | 0.00 | 67 | 1016.3 |
| 20260504221003 | 58 | 0 | 0.0 | 0.0 | 0.00 | 0.00 | 0.00 | 67 | 1016.4 |
| 20260504220503 | 58 | 0 | 0.0 | 0.0 | 0.00 | 0.00 | 0.00 | 67 | 1016.4 |
| 20260504220005 | 58 | 0 | 0.0 | 0.0 | 0.00 | 0.00 | 0.00 | 67 | 1016.5 |
| 20260504215504 | 58 | 275 | 0.0 | 1.0 | 0.00 | 0.00 | 0.00 | 66 | 1016.5 |
| 20260504215003 | 58 | 309 | 0.0 | 5.0 | 0.00 | 0.00 | 0.00 | 66 | 1016.5 |
| 20260504214504 | 58 | 313 | 1.0 | 5.0 | 0.00 | 0.00 | 0.00 | 65 | 1016.6 |
| 20260504214003 | 58 | 316 | 0.0 | 4.0 | 0.00 | 0.00 | 0.00 | 66 | 1016.6 |
| 20260504213503 | 58 | 0 | 0.0 | 0.0 | 0.00 | 0.00 | 0.00 | 67 | 1016.7 |
| 20260504213004 | 58 | 0 | 0.0 | 0.0 | 0.00 | 0.00 | 0.00 | 68 | 1016.8 |
| 20260504212716 | 58 | 0 | 0.0 | 0.0 | 0.00 | 0.00 | 0.00 | 67 | 1016.8 |
| 20260504212003 | 58 | 269 | 0.0 | 2.0 | 0.00 | 0.00 | 0.00 | 66 | 1017.0 |
| 20260504211503 | 58 | 273 | 0.0 | 2.0 | 0.00 | 0.00 | 0.00 | 66 | 1017.0 |
| 20260504211003 | 58 | 287 | 0.0 | 3.0 | 0.00 | 0.00 | 0.00 | 66 | 1017.1 |
| 20260504210503 | 58 | 296 | 0.0 | 3.0 | 0.00 | 0.00 | 0.00 | 66 | 1017.1 |
| 20260504210004 | 58 | 281 | 0.0 | 4.0 | 0.00 | 0.00 | 0.00 | 66 | 1017.2 |
| 20260504205504 | 58 | 273 | 1.0 | 4.0 | 0.00 | 0.00 | 0.00 | 66 | 1017.2 |
| 20260504205004 | 58 | 270 | 0.0 | 4.0 | 0.00 | 0.00 | 0.00 | 66 | 1017.2 |
| 20260504204503 | 58 | 268 | 0.0 | 2.0 | 0.00 | 0.00 | 0.00 | 67 | 1017.3 |
| 20260504204003 | 58 | 255 | 0.0 | 2.0 | 0.00 | 0.00 | 0.00 | 67 | 1017.2 |
| 20260504203503 | 58 | 266 | 0.0 | 3.0 | 0.00 | 0.00 | 0.00 | 66 | 1017.2 |
| 20260504203003 | 58 | 277 | 1.0 | 5.0 | 0.00 | 0.00 | 0.00 | 66 | 1017.2 |
| 20260504202503 | 59 | 296 | 2.0 | 13.0 | 0.00 | 0.00 | 0.00 | 66 | 1017.2 |
| 20260504202003 | 59 | 301 | 2.0 | 13.0 | 0.00 | 0.00 | 0.00 | 65 | 1017.1 |
| 20260504201503 | 59 | 296 | 1.0 | 8.0 | 0.00 | 0.00 | 0.00 | 64 | 1017.0 |
| 20260504201004 | 59 | 285 | 1.0 | 7.0 | 0.00 | 0.00 | 0.00 | 65 | 1017.0 |
| 20260504200714 | 59 | 279 | 0.0 | 7.0 | 0.00 | 0.00 | 0.00 | 65 | 1017.0 |
| 20260504200004 | 58 | 259 | 0.0 | 3.0 | 0.00 | 0.00 | 0.00 | 67 | 1017.0 |
| 20260504195503 | 58 | 261 | 0.0 | 3.0 | 0.00 | 0.00 | 0.00 | 68 | 1017.0 |
| 20260504195003 | 58 | 0 | 0.0 | 0.0 | 0.00 | 0.00 | 0.00 | 69 | 1017.0 |
| 20260504194503 | 59 | 0 | 0.0 | 0.0 | 0.00 | 0.00 | 0.00 | 70 | 1017.1 |
| 20260504194003 | 59 | 243 | 0.0 | 2.0 | 0.00 | 0.00 | 0.00 | 68 | 1017.0 |
| 20260504193503 | 60 | 243 | 0.0 | 2.0 | 0.00 | 0.00 | 0.00 | 66 | 1017.0 |
| 20260504193003 | 60 | 321 | 0.0 | 1.0 | 0.00 | 0.00 | 0.00 | 63 | 1016.9 |
| 20260504192712 | 60 | 321 | 0.0 | 1.0 | 0.00 | 0.00 | 0.00 | 63 | 1016.8 |
| 20260504192003 | 60 | 0 | 0.0 | 0.0 | 0.00 | 0.00 | 0.00 | 64 | 1016.6 |
| 20260504191504 | 60 | 204 | 0.0 | 1.0 | 0.00 | 0.00 | 0.00 | 64 | 1016.6 |
| 20260504191218 | 60 | 283 | 0.0 | 2.0 | 0.00 | 0.00 | 0.00 | 64 | 1016.6 |
| 20260504190504 | 60 | 267 | 0.0 | 9.0 | 0.00 | 0.00 | 0.00 | 64 | 1016.5 |
| 20260504190004 | 60 | 278 | 0.0 | 5.0 | 0.00 | 0.00 | 0.00 | 65 | 1016.4 |
| 20260504185503 | 59 | 283 | 0.0 | 4.0 | 0.00 | 0.00 | 0.00 | 67 | 1016.3 |
| 20260504185003 | 59 | 281 | 0.0 | 3.0 | 0.00 | 0.00 | 0.00 | 71 | 1016.3 |
| 20260504184504 | 59 | 278 | 0.0 | 3.0 | 0.00 | 0.00 | 0.00 | 71 | 1016.3 |
| 20260504184003 | 60 | 257 | 0.0 | 1.0 | 0.00 | 0.00 | 0.00 | 72 | 1016.4 |
| 20260504183717 | 60 | 257 | 0.0 | 1.0 | 0.00 | 0.00 | 0.00 | 72 | 1016.4 |
| 20260504183003 | 60 | 263 | 0.0 | 1.0 | 0.00 | 0.00 | 0.00 | 72 | 1016.5 |
| 20260504182504 | 60 | 267 | 0.0 | 4.0 | 0.00 | 0.00 | 0.00 | 72 | 1016.5 |
| 20260504182216 | 60 | 269 | 0.0 | 4.0 | 0.00 | 0.00 | 0.00 | 71 | 1016.5 |
| 20260504181503 | 60 | 267 | 0.0 | 4.0 | 0.00 | 0.00 | 0.00 | 71 | 1016.5 |
| 20260504181003 | 60 | 239 | 0.0 | 2.0 | 0.00 | 0.00 | 0.00 | 71 | 1016.5 |
| 20260504180504 | 60 | 270 | 0.0 | 6.0 | 0.00 | 0.00 | 0.00 | 70 | 1016.5 |
| 20260504180003 | 61 | 274 | 1.0 | 6.0 | 0.00 | 0.00 | 0.00 | 69 | 1016.4 |
| 20260504175503 | 61 | 271 | 1.0 | 6.0 | 0.00 | 0.00 | 0.00 | 68 | 1016.4 |
| 20260504175003 | 61 | 265 | 1.0 | 7.0 | 0.00 | 0.00 | 0.00 | 67 | 1016.4 |
| 20260504174503 | 62 | 273 | 1.0 | 8.0 | 0.00 | 0.00 | 0.00 | 67 | 1016.4 |
| 20260504174003 | 62 | 275 | 1.0 | 8.0 | 0.00 | 0.00 | 0.00 | 67 | 1016.4 |
| 20260504173504 | 62 | 268 | 0.0 | 5.0 | 0.00 | 0.00 | 0.00 | 67 | 1016.5 |
| 20260504173216 | 62 | 266 | 0.0 | 5.0 | 0.00 | 0.00 | 0.00 | 67 | 1016.5 |
| 20260504172504 | 62 | 255 | 0.0 | 3.0 | 0.00 | 0.00 | 0.00 | 67 | 1016.3 |
| 20260504172217 | 63 | 0 | 0.0 | 0.0 | 0.00 | 0.00 | 0.00 | 67 | 1016.3 |
| 20260504171503 | 63 | 271 | 0.0 | 1.0 | 0.00 | 0.00 | 0.00 | 65 | 1016.3 |
| 20260504171004 | 63 | 271 | 0.0 | 1.0 | 0.00 | 0.00 | 0.00 | 64 | 1016.3 |
| 20260504170504 | 63 | 0 | 0.0 | 0.0 | 0.00 | 0.00 | 0.00 | 65 | 1016.2 |